sensor_id;sensor_type;location;lat;lon;timestamp;P1;P2;P0
47709;PMS7003;33473;51.640;5.892;2023-11-22T00:04:05;22.09;20.83;11.89
47709;PMS7003;33473;51.640;5.892;2023-11-22T00:17:26;20.29;20.07;11.78
47709;PMS7003;33473;51.640;5.892;2023-11-22T00:30:46;21.01;20.72;11.45
47709;PMS7003;33473;51.640;5.892;2023-11-22T00:44:06;20.17;20.17;11.67
47709;PMS7003;33473;51.640;5.892;2023-11-22T00:57:26;18.85;19.52;10.8
47709;PMS7003;33473;51.640;5.892;2023-11-22T01:10:47;19.69;20.07;11.02
47709;PMS7003;33473;51.640;5.892;2023-11-22T01:24:08;18.01;18.76;11.13
47709;PMS7003;33473;51.640;5.892;2023-11-22T01:37:28;19.81;19.74;11.35
47709;PMS7003;33473;51.640;5.892;2023-11-22T01:50:47;19.57;20.17;10.8
47709;PMS7003;33473;51.640;5.892;2023-11-22T02:04:07;18.61;19.3;10.69
47709;PMS7003;33473;51.640;5.892;2023-11-22T02:17:28;17.29;18.76;10.15
47709;PMS7003;33473;51.640;5.892;2023-11-22T02:30:50;17.17;18.65;10.15
47709;PMS7003;33473;51.640;5.892;2023-11-22T02:44:11;17.05;18.32;9.49
47709;PMS7003;33473;51.640;5.892;2023-11-22T02:57:31;19.69;19.63;9.93
47709;PMS7003;33473;51.640;5.892;2023-11-22T03:10:52;18.49;19.41;10.69
47709;PMS7003;33473;51.640;5.892;2023-11-22T03:24:13;17.89;18.98;9.93
47709;PMS7003;33473;51.640;5.892;2023-11-22T03:37:33;16.81;18.43;9.38
47709;PMS7003;33473;51.640;5.892;2023-11-22T03:50:54;19.09;19.3;9.49
47709;PMS7003;33473;51.640;5.892;2023-11-22T04:04:14;15.49;17.12;9.06
47709;PMS7003;33473;51.640;5.892;2023-11-22T04:17:35;17.29;18.21;8.73
47709;PMS7003;33473;51.640;5.892;2023-11-22T04:30:56;17.53;17.89;9.17
47709;PMS7003;33473;51.640;5.892;2023-11-22T04:44:16;10.57;10.8;6.11
47709;PMS7003;33473;51.640;5.892;2023-11-22T04:57:37;16.69;17.78;8.51
47709;PMS7003;33473;51.640;5.892;2023-11-22T05:10:58;17.89;19.08;9.38
47709;PMS7003;33473;51.640;5.892;2023-11-22T05:24:19;18.61;18.43;9.71
47709;PMS7003;33473;51.640;5.892;2023-11-22T05:37:41;18.25;19.41;10.8
47709;PMS7003;33473;51.640;5.892;2023-11-22T05:51:02;19.93;20.28;11.45
47709;PMS7003;33473;51.640;5.892;2023-11-22T06:04:22;21.37;20.83;10.58
47709;PMS7003;33473;51.640;5.892;2023-11-22T06:17:41;20.89;20.94;11.13
47709;PMS7003;33473;51.640;5.892;2023-11-22T06:31:03;23.41;21.7;11.24
47709;PMS7003;33473;51.640;5.892;2023-11-22T06:44:24;20.65;20.61;10.8
47709;PMS7003;33473;51.640;5.892;2023-11-22T06:57:44;22.57;21.7;11.56
47709;PMS7003;33473;51.640;5.892;2023-11-22T07:11:03;21.97;21.37;11.24
47709;PMS7003;33473;51.640;5.892;2023-11-22T07:24:25;22.45;21.59;11.78
47709;PMS7003;33473;51.640;5.892;2023-11-22T07:37:46;23.65;21.7;12.11
47709;PMS7003;33473;51.640;5.892;2023-11-22T07:51:06;22.09;21.59;11.45
47709;PMS7003;33473;51.640;5.892;2023-11-22T08:04:25;21.97;21.16;11.13
47709;PMS7003;33473;51.640;5.892;2023-11-22T08:17:47;23.77;22.46;12.33
47709;PMS7003;33473;51.640;5.892;2023-11-22T08:31:08;27.01;24.43;12.22
47709;PMS7003;33473;51.640;5.892;2023-11-22T08:44:27;26.17;23.55;12.65
47709;PMS7003;33473;51.640;5.892;2023-11-22T08:57:49;29.29;25.41;13.53
47709;PMS7003;33473;51.640;5.892;2023-11-22T09:11:10;30.13;26.17;13.74
47709;PMS7003;33473;51.640;5.892;2023-11-22T09:24:30;31.81;26.5;14.18
47709;PMS7003;33473;51.640;5.892;2023-11-22T09:37:51;30.13;26.17;14.4
47709;PMS7003;33473;51.640;5.892;2023-11-22T09:51:12;30.97;26.71;14.83
47709;PMS7003;33473;51.640;5.892;2023-11-22T10:04:32;32.29;27.48;14.51
47709;PMS7003;33473;51.640;5.892;2023-11-22T10:17:53;38.3;30.53;17.01
47709;PMS7003;33473;51.640;5.892;2023-11-22T10:31:13;38.9;32.38;17.12
47709;PMS7003;33473;51.640;5.892;2023-11-22T10:44:32;39.14;32.49;17.23
47709;PMS7003;33473;51.640;5.892;2023-11-22T10:57:54;36.26;29.88;16.58
47709;PMS7003;33473;51.640;5.892;2023-11-22T11:11:15;35.54;29.55;16.58
47709;PMS7003;33473;51.640;5.892;2023-11-22T11:24:36;34.82;28.79;15.71
47709;PMS7003;33473;51.640;5.892;2023-11-22T11:37:56;36.14;29.22;16.25
47709;PMS7003;33473;51.640;5.892;2023-11-22T11:51:17;34.58;29.0;16.03
47709;PMS7003;33473;51.640;5.892;2023-11-22T12:04:37;31.21;26.61;15.16
47709;PMS7003;33473;51.640;5.892;2023-11-22T12:17:58;28.33;24.53;13.63
47709;PMS7003;33473;51.640;5.892;2023-11-22T12:31:19;29.65;25.41;14.07
47709;PMS7003;33473;51.640;5.892;2023-11-22T12:44:40;25.81;22.79;12.54
47709;PMS7003;33473;51.640;5.892;2023-11-22T12:58:00;28.09;24.64;13.85
47709;PMS7003;33473;51.640;5.892;2023-11-22T13:11:21;28.33;24.53;13.74
47709;PMS7003;33473;51.640;5.892;2023-11-22T13:24:41;30.13;26.06;14.18
47709;PMS7003;33473;51.640;5.892;2023-11-22T13:38:01;28.93;25.19;13.74
47709;PMS7003;33473;51.640;5.892;2023-11-22T13:51:20;28.57;25.08;13.63
47709;PMS7003;33473;51.640;5.892;2023-11-22T14:04:41;30.73;26.17;14.18
47709;PMS7003;33473;51.640;5.892;2023-11-22T14:18:03;32.05;26.82;14.18
47709;PMS7003;33473;51.640;5.892;2023-11-22T14:31:24;30.37;26.06;13.96
47709;PMS7003;33473;51.640;5.892;2023-11-22T14:44:44;29.29;25.41;13.74
47709;PMS7003;33473;51.640;5.892;2023-11-22T14:58:05;29.77;25.73;13.31
47709;PMS7003;33473;51.640;5.892;2023-11-22T15:11:26;29.17;25.3;13.63
47709;PMS7003;33473;51.640;5.892;2023-11-22T15:24:46;26.89;23.88;13.09
47709;PMS7003;33473;51.640;5.892;2023-11-22T15:38:07;27.01;24.1;13.42
47709;PMS7003;33473;51.640;5.892;2023-11-22T15:51:28;25.69;22.9;12.87
47709;PMS7003;33473;51.640;5.892;2023-11-22T16:04:48;25.69;22.79;12.54
47709;PMS7003;33473;51.640;5.892;2023-11-22T16:18:09;27.01;23.55;12.65
47709;PMS7003;33473;51.640;5.892;2023-11-22T16:31:29;27.13;23.55;12.87
47709;PMS7003;33473;51.640;5.892;2023-11-22T16:44:50;27.61;24.21;13.31
47709;PMS7003;33473;51.640;5.892;2023-11-22T16:58:09;30.01;25.52;14.29
47709;PMS7003;33473;51.640;5.892;2023-11-22T17:11:31;31.09;26.39;14.72
47709;PMS7003;33473;51.640;5.892;2023-11-22T17:24:52;30.61;26.39;14.4
47709;PMS7003;33473;51.640;5.892;2023-11-22T17:38:13;31.57;26.71;15.38
47709;PMS7003;33473;51.640;5.892;2023-11-22T17:51:34;30.13;25.73;14.4
47709;PMS7003;33473;51.640;5.892;2023-11-22T18:04:54;30.73;26.17;13.96
47709;PMS7003;33473;51.640;5.892;2023-11-22T18:18:15;29.77;25.84;14.07
47709;PMS7003;33473;51.640;5.892;2023-11-22T18:31:35;27.73;24.43;13.74
47709;PMS7003;33473;51.640;5.892;2023-11-22T18:44:55;27.97;24.32;13.53
47709;PMS7003;33473;51.640;5.892;2023-11-22T18:58:16;27.61;23.66;13.42
47709;PMS7003;33473;51.640;5.892;2023-11-22T19:11:37;25.33;22.79;12.76
47709;PMS7003;33473;51.640;5.892;2023-11-22T19:24:57;25.57;23.12;12.65
47709;PMS7003;33473;51.640;5.892;2023-11-22T19:38:18;25.81;23.23;13.09
47709;PMS7003;33473;51.640;5.892;2023-11-22T19:51:38;26.53;22.79;13.09
47709;PMS7003;33473;51.640;5.892;2023-11-22T20:04:57;22.09;20.94;11.45
47709;PMS7003;33473;51.640;5.892;2023-11-22T20:18:19;21.37;20.17;11.13
47709;PMS7003;33473;51.640;5.892;2023-11-22T20:31:40;20.29;19.96;11.13
47709;PMS7003;33473;51.640;5.892;2023-11-22T20:45:01;19.81;19.63;11.24
47709;PMS7003;33473;51.640;5.892;2023-11-22T20:58:22;20.53;19.96;11.35
47709;PMS7003;33473;51.640;5.892;2023-11-22T21:11:42;21.97;20.83;11.35
47709;PMS7003;33473;51.640;5.892;2023-11-22T21:25:03;21.25;19.85;11.24
47709;PMS7003;33473;51.640;5.892;2023-11-22T21:38:23;20.29;19.96;11.89
47709;PMS7003;33473;51.640;5.892;2023-11-22T21:51:44;21.85;20.72;11.56
47709;PMS7003;33473;51.640;5.892;2023-11-22T22:05:04;21.25;20.28;11.56
47709;PMS7003;33473;51.640;5.892;2023-11-22T22:18:23;23.05;21.05;12.11
47709;PMS7003;33473;51.640;5.892;2023-11-22T22:31:44;24.49;20.94;11.89
47709;PMS7003;33473;51.640;5.892;2023-11-22T22:45:06;23.53;20.61;11.89
47709;PMS7003;33473;51.640;5.892;2023-11-22T22:58:27;22.93;20.94;12.11
47709;PMS7003;33473;51.640;5.892;2023-11-22T23:11:48;23.05;21.16;12.11
47709;PMS7003;33473;51.640;5.892;2023-11-22T23:25:08;21.61;20.28;11.67
47709;PMS7003;33473;51.640;5.892;2023-11-22T23:38:27;23.29;20.94;12.54
47709;PMS7003;33473;51.640;5.892;2023-11-22T23:51:47;24.37;21.16;12.0
